This is the latest recevied weather packets stored in our database for station/object GW1573. If no packets are shown the sender has not sent any weather packets the latest 10 day(s).
| Time | Temp. | Humidity | Pressure | Rain* | Wind** | Luminosity | Snow |
|---|---|---|---|---|---|---|---|
| 1777379789 | 13.89° C | 95% | 1014.5 hPa | 11.18 mm | - | - | - |
| 1777379443 | 13.89° C | 96% | 1014.5 hPa | 11.18 mm | - | - | - |
| 1777377651 | 12.78° C | 98% | 1014.2 hPa | 11.18 mm | - | - | - |
| 1777376930 | 12.22° C | 98% | 1013.8 hPa | 11.18 mm | - | - | - |
| 1777374051 | 11.67° C | 99% | 1013.2 hPa | 11.18 mm | - | - | - |
| 1777373323 | 11.67° C | 98% | 1013.5 hPa | 11.18 mm | - | - | - |
| 1777371886 | 11.67° C | 97% | 1012.1 hPa | 11.18 mm | - | - | - |
| 1777371509 | 11.67° C | 97% | 1012.1 hPa | 11.18 mm | - | - | - |
| 1777367892 | 11.67° C | 99% | 1011.8 hPa | 11.18 mm | - | - | - |
| 1777366828 | 12.22° C | 99% | 1013.8 hPa | 11.18 mm | - | - | - |
| 1777366464 | 12.22° C | 99% | 1014.2 hPa | 10.92 mm | - | - | - |
| 1777365750 | 12.22° C | 98% | 1014.5 hPa | 10.92 mm | - | - | - |
| 1777363960 | 12.22° C | 98% | 1014.2 hPa | 10.67 mm | - | - | - |
| 1777361788 | 12.22° C | 97% | 1014.2 hPa | 8.89 mm | - | - | - |
| 1777360346 | 12.22° C | 97% | 1013.8 hPa | 7.87 mm | - | - | - |
| 1777356025 | 13.33° C | 92% | 1014.9 hPa | 4.57 mm | - | - | - |
| 1777350613 | 15° C | 89% | 1017.2 hPa | 1.27 mm | - | - | - |
| 1777349561 | 17.78° C | 60% | 1016.9 hPa | 0 mm | - | - | - |
| 1777348490 | 20.56° C | 45% | 1016.2 hPa | 0 mm | - | - | - |
| 1777347395 | 21.11° C | 42% | 1015.5 hPa | 0 mm | - | - | - |
| 1777346688 | 21.11° C | 42% | 1015.5 hPa | 0 mm | - | - | - |
| 1777343791 | 20° C | 45% | 1015.5 hPa | 0 mm | - | - | - |
| 1777340930 | 20° C | 48% | 1015.5 hPa | 0 mm | - | - | - |
| 1777340547 | 20.56° C | 49% | 1015.5 hPa | 0 mm | - | - | - |
| 1777340207 | 20° C | 46% | 1015.5 hPa | 0 mm | - | - | - |
* Rain since midnight (hover to see other rain measurements)
** Current wind speed in m/s (hover to see current wind gust speed)